Weather History for PABL - March, 2013

Change the Weather History Date:

Saturday, March 30, 2013

  Actual Average (PASK) Record (PASK)
Temperature  
Mean Temperature 3 °F -  
Max Temperature 6 °F 7 °F 28 °F (2008)
Min Temperature 0 °F -3 °F -29 °F (2004)
Degree Days  
Heating Degree Days 62    
Moisture  
Dew Point -1 °F    
Average Humidity 85    
Maximum Humidity 92    
Minimum Humidity 78    
Precipitation  
Precipitation 0.00 in - - ()
Sea Level Pressure  
Sea Level Pressure 30.21 in    
Wind  
Wind Speed 13 mph (NW)    
Max Wind Speed 17 mph    
Max Gust Speed 18 mph    
Visibility 6 miles    
Events      
Averages and records for this station are not official NWS values.
T = Trace of Precipitation, MM = Missing Value Source: NWS Daily Summary

Daily Weather History Graph

Daily Weather History Graph

Search for Another Location

Airport or City:

Trip Planner

Search our weather history database for the weather conditions in past years. The results will help you decide how hot, cold, wet, or windy it might be!

Date:

Astronomy

Mar. 30, 2013 Rise Set
Actual Time 8:04 AM AKDT 9:35 PM AKDT
Civil Twilight 7:11 AM AKDT 10:29 PM AKDT
Nautical Twilight 6:01 AM AKDT 11:39 PM AKDT
Astronomical Twilight 4:23 AM AKDT 1:22 AM AKDT
Moon 2:26 AM AKDT (3/30) 8:24 AM AKDT (3/30)
Length of Visible Light 15h 17m
Length of Day
13h 30m
Waning Gibbous, 85% of the Moon is Illuminated
Mar 30
Waning Gibbous
Apr 2
Last Quarter
Apr 10
New
Apr 18
First Quarter
Apr 25
Full

Hourly Weather History & Observations

Time (AKDT) Temp. Windchill Dew Point Humidity Pressure Visibility Wind Dir Wind Speed Gust Speed Precip Events Conditions
12:16 AM 6.8 °F -10.7 °F 3.2 °F 85% 30.04 in 10.0 mi NW 15.0 mph - N/A   Overcast
12:36 AM 6.8 °F -10.7 °F 3.2 °F 85% 30.04 in 10.0 mi NW 15.0 mph - N/A   Overcast
12:56 AM 6.8 °F -10.0 °F 3.2 °F 85% 30.05 in 5.0 mi NW 13.8 mph 18.4 mph N/A   Overcast
1:16 AM 5.0 °F -11.6 °F 1.4 °F 85% 30.05 in 5.0 mi NW 12.7 mph - N/A   Overcast
1:36 AM 5.0 °F -13.0 °F 1.4 °F 85% 30.05 in 5.0 mi NW 15.0 mph - N/A   Overcast
1:56 AM 3.2 °F -15.3 °F 1.4 °F 92% 30.06 in 4.0 mi NW 15.0 mph - N/A   Overcast
2:16 AM 3.2 °F -15.3 °F 1.4 °F 92% 30.07 in 3.0 mi NW 15.0 mph - N/A   Overcast
2:36 AM 3.2 °F -16.5 °F -0.4 °F 85% 30.08 in 3.0 mi NW 17.3 mph - N/A   Overcast
2:56 AM 3.2 °F -15.9 °F -0.4 °F 85% 30.08 in 3.0 mi NW 16.1 mph - N/A   Overcast
3:16 AM 3.2 °F -16.5 °F -0.4 °F 85% 30.09 in 2.5 mi NW 17.3 mph - N/A   Overcast
3:56 AM 1.4 °F -18.2 °F -2.2 °F 85% 30.10 in 2.5 mi NW 16.1 mph - N/A   Overcast
4:16 AM 1.4 °F -18.8 °F -0.4 °F 92% 30.11 in 2.5 mi NW 17.3 mph - N/A   Overcast
4:36 AM 1.4 °F -17.6 °F -2.2 °F 85% 30.11 in 2.5 mi NW 15.0 mph - N/A   Overcast
4:56 AM 1.4 °F -17.6 °F -0.4 °F 92% 30.12 in 2.5 mi NW 15.0 mph - N/A   Overcast
5:16 AM 1.4 °F -16.9 °F -2.2 °F 85% 30.13 in 2.0 mi NW 13.8 mph - N/A   Overcast
5:36 AM 1.4 °F -15.3 °F -2.2 °F 85% 30.13 in 1.8 mi NW 11.5 mph - N/A   Overcast
5:56 AM 1.4 °F -17.6 °F -2.2 °F 85% 30.14 in 2.0 mi NW 15.0 mph - N/A   Overcast
6:16 AM 1.4 °F -16.9 °F -0.4 °F 92% 30.14 in 2.0 mi NW 13.8 mph - N/A   Overcast
6:36 AM 1.4 °F -16.9 °F -2.2 °F 85% 30.15 in 1.5 mi NW 13.8 mph - N/A   Overcast
6:56 AM 1.4 °F -14.5 °F -0.4 °F 92% 30.15 in 1.5 mi NNW 10.4 mph - N/A   Overcast
7:16 AM 1.4 °F -16.1 °F -2.2 °F 85% 30.15 in 1.8 mi NW 12.7 mph - N/A   Overcast
7:36 AM 1.4 °F -16.1 °F -2.2 °F 85% 30.16 in 2.5 mi NW 12.7 mph - N/A   Overcast
7:56 AM 1.4 °F -16.1 °F -2.2 °F 85% 30.16 in 4.0 mi NNW 12.7 mph - N/A   Overcast
8:16 AM 1.4 °F -14.5 °F -2.2 °F 85% 30.16 in 3.0 mi NNW 10.4 mph - N/A   Overcast
8:36 AM 1.4 °F -16.1 °F -2.2 °F 85% 30.17 in 7.0 mi NW 12.7 mph - N/A   Overcast
8:56 AM 1.4 °F -15.3 °F -2.2 °F 85% 30.18 in 9.0 mi NNW 11.5 mph - N/A   Overcast
9:16 AM -0.4 °F -18.4 °F -4.0 °F 85% 30.18 in 5.0 mi NW 12.7 mph - N/A   Overcast
9:36 AM -0.4 °F -17.6 °F -2.2 °F 92% 30.19 in 8.0 mi NW 11.5 mph - N/A   Overcast
9:56 AM 1.4 °F -15.3 °F -2.2 °F 85% 30.20 in 5.0 mi NW 11.5 mph - N/A   Overcast
10:16 AM 1.4 °F -17.6 °F -4.0 °F 78% 30.21 in 3.0 mi NW 15.0 mph - N/A   Overcast
10:36 AM 1.4 °F -16.9 °F -2.2 °F 85% 30.22 in 2.5 mi NW 13.8 mph - N/A   Overcast
10:56 AM -0.4 °F -19.9 °F -4.0 °F 85% 30.22 in 3.0 mi NW 15.0 mph - N/A   Overcast
11:16 AM -0.4 °F -17.6 °F -4.0 °F 85% 30.23 in 10.0 mi NW 11.5 mph - N/A   Overcast
11:36 AM 1.4 °F -16.9 °F -4.0 °F 78% 30.23 in 10.0 mi NW 13.8 mph - N/A   Overcast
11:56 AM 1.4 °F -16.1 °F -2.2 °F 85% 30.24 in 10.0 mi NW 12.7 mph - N/A   Overcast
12:16 PM 1.4 °F -16.1 °F -2.2 °F 85% 30.24 in 10.0 mi NW 12.7 mph - N/A   Overcast
12:36 PM 1.4 °F -15.3 °F -2.2 °F 85% 30.24 in 5.0 mi NW 11.5 mph - N/A   Overcast
12:56 PM 1.4 °F -16.1 °F -4.0 °F 78% 30.24 in 5.0 mi NW 12.7 mph - N/A   Overcast
1:16 PM 1.4 °F -14.5 °F -2.2 °F 85% 30.24 in 8.0 mi NW 10.4 mph - N/A   Overcast
1:36 PM 1.4 °F -14.5 °F -0.4 °F 92% 30.25 in 6.0 mi NW 10.4 mph - N/A   Overcast
1:56 PM 3.2 °F -13.1 °F -2.2 °F 78% 30.25 in 4.0 mi NW 11.5 mph - N/A   Overcast
2:16 PM 3.2 °F -13.9 °F -2.2 °F 78% 30.26 in 3.0 mi NW 12.7 mph - N/A   Overcast
2:36 PM 3.2 °F -12.2 °F -2.2 °F 78% 30.26 in 3.0 mi NW 10.4 mph - N/A   Overcast
2:56 PM 3.2 °F -12.2 °F -0.4 °F 85% 30.26 in 3.0 mi NW 10.4 mph - N/A   Overcast
3:16 PM 3.2 °F -11.3 °F -0.4 °F 85% 30.26 in 5.0 mi NW 9.2 mph - N/A   Overcast
3:36 PM 3.2 °F -10.3 °F -0.4 °F 85% 30.26 in 9.0 mi NW 8.1 mph - N/A   Overcast
3:56 PM 3.2 °F -11.3 °F -0.4 °F 85% 30.26 in 9.0 mi NW 9.2 mph - N/A   Overcast
4:16 PM 3.2 °F -10.3 °F -0.4 °F 85% 30.27 in 9.0 mi NNW 8.1 mph - N/A   Overcast
4:36 PM 3.2 °F -12.2 °F -0.4 °F 85% 30.27 in 10.0 mi NW 10.4 mph - N/A   Overcast
4:56 PM 3.2 °F -13.1 °F -0.4 °F 85% 30.27 in 7.0 mi NW 11.5 mph - N/A   Overcast
5:16 PM 3.2 °F -13.9 °F -0.4 °F 85% 30.28 in 4.0 mi NW 12.7 mph - N/A   Overcast
5:36 PM 3.2 °F -13.9 °F -2.2 °F 78% 30.29 in 5.0 mi NW 12.7 mph - N/A   Overcast
5:56 PM 3.2 °F -12.2 °F -0.4 °F 85% 30.28 in 5.0 mi NW 10.4 mph - N/A   Overcast
6:16 PM 3.2 °F -11.3 °F -0.4 °F 85% 30.28 in 5.0 mi NW 9.2 mph - N/A   Overcast
6:36 PM 3.2 °F -10.3 °F -0.4 °F 85% 30.28 in 7.0 mi NW 8.1 mph - N/A   Overcast
6:56 PM 3.2 °F -10.3 °F 1.4 °F 92% 30.29 in 5.0 mi WNW 8.1 mph - N/A   Overcast
7:16 PM 3.2 °F -11.3 °F -0.4 °F 85% 30.29 in 7.0 mi WNW 9.2 mph - N/A   Overcast
7:36 PM 3.2 °F -10.3 °F 1.4 °F 92% 30.29 in 6.0 mi WNW 8.1 mph - N/A   Overcast
7:56 PM 3.2 °F -10.3 °F -0.4 °F 85% 30.29 in 7.0 mi WNW 8.1 mph - N/A   Overcast
8:16 PM 3.2 °F -9.1 °F -0.4 °F 85% 30.29 in 5.0 mi NW 6.9 mph - N/A   Overcast
8:36 PM 3.2 °F -9.1 °F -0.4 °F 85% 30.29 in 5.0 mi NW 6.9 mph - N/A   Overcast
8:56 PM 3.2 °F -10.3 °F -0.4 °F 85% 30.30 in 7.0 mi NW 8.1 mph - N/A   Overcast
9:16 PM 3.2 °F -9.1 °F -0.4 °F 85% 30.30 in 6.0 mi NW 6.9 mph - N/A   Overcast
9:36 PM 1.4 °F -9.9 °F -2.2 °F 85% 30.30 in 8.0 mi NW 5.8 mph - N/A   Overcast
9:56 PM 1.4 °F -8.3 °F -2.2 °F 85% 30.30 in 7.0 mi NNW 4.6 mph - N/A   Overcast
10:16 PM 1.4 °F -8.3 °F -2.2 °F 85% 30.30 in 10.0 mi NNW 4.6 mph - N/A   Overcast
10:36 PM 1.4 °F -9.9 °F -2.2 °F 85% 30.30 in 10.0 mi NNW 5.8 mph - N/A   Overcast
10:56 PM 1.4 °F -9.9 °F -2.2 °F 85% 30.31 in 10.0 mi NNW 5.8 mph - N/A   Overcast
11:16 PM 1.4 °F -9.9 °F -2.2 °F 85% 30.31 in 10.0 mi NW 5.8 mph - N/A   Overcast
11:36 PM 1.4 °F -6.2 °F -4.0 °F 78% 30.31 in 10.0 mi NW 3.5 mph - N/A   Overcast
11:56 PM 1.4 °F -6.2 °F -2.2 °F 85% 30.31 in 10.0 mi NW 3.5 mph - N/A   Overcast